createdAt,value
2022-09-06T00:00:36.017Z,68.74
2022-09-06T00:01:35.971Z,69.15
2022-09-06T00:02:36.049Z,68.65
2022-09-06T00:03:36.009Z,68.95
2022-09-06T00:04:36.016Z,70.26
2022-09-06T00:05:35.942Z,68.95
2022-09-06T00:06:35.956Z,69.15
2022-09-06T00:07:35.934Z,69.15
2022-09-06T00:08:35.912Z,68.65
2022-09-06T00:09:35.879Z,70.06
2022-09-06T00:10:35.886Z,68.34
2022-09-06T00:11:35.869Z,69.35
2022-09-06T00:12:35.870Z,68.34
2022-09-06T00:13:35.825Z,69.05
2022-09-06T00:14:35.833Z,69.75
2022-09-06T00:15:35.845Z,69.05
2022-09-06T00:16:35.802Z,68.44
2022-09-06T00:17:35.804Z,69.15
2022-09-06T00:18:35.772Z,69.55
2022-09-06T00:19:35.779Z,69.05
2022-09-06T00:20:35.756Z,69.45
2022-09-06T00:21:35.734Z,70.06
2022-09-06T00:22:35.741Z,69.85
2022-09-06T00:23:35.739Z,69.38
2022-09-06T00:24:35.708Z,69.18
2022-09-06T00:25:35.707Z,68.88
2022-09-06T00:26:35.687Z,69.05
2022-09-06T00:27:35.709Z,69.05
2022-09-06T00:28:35.658Z,68.74
2022-09-06T00:29:35.656Z,68.85
2022-09-06T00:30:35.656Z,68.74
2022-09-06T00:31:35.719Z,68.54
2022-09-06T00:32:35.636Z,68.74
2022-09-06T00:33:35.609Z,68.65
2022-09-06T00:34:35.613Z,69.35
2022-09-06T00:35:35.579Z,69.15
2022-09-06T00:36:35.572Z,69.85
2022-09-06T00:37:35.590Z,68.57
2022-09-06T00:38:35.567Z,69.15
2022-09-06T00:39:35.601Z,68.57
2022-09-06T00:40:35.570Z,68.77
2022-09-06T00:41:35.598Z,69.99
2022-09-06T00:42:35.535Z,70.19
2022-09-06T00:43:35.499Z,70.29
2022-09-06T00:44:35.480Z,69.28
2022-09-06T00:45:35.488Z,69.28
2022-09-06T00:46:35.562Z,69.48
2022-09-06T00:47:35.452Z,69.89
2022-09-06T00:48:35.499Z,70.39
2022-09-06T00:49:35.430Z,69.59
2022-09-06T00:50:35.449Z,69.08
2022-09-06T00:51:35.419Z,69.99
2022-09-06T00:52:35.406Z,70.39
2022-09-06T00:53:35.430Z,69.79
2022-09-06T00:54:35.368Z,68.88
2022-09-06T00:55:35.360Z,69.79
2022-09-06T00:56:35.353Z,69.59
2022-09-06T00:57:35.424Z,69.99
2022-09-06T00:58:35.364Z,69.79
2022-09-06T00:59:35.332Z,70.09
2022-09-06T01:00:35.348Z,70.49
2022-09-06T01:01:35.456Z,70.29
2022-09-06T01:02:35.373Z,69.82
2022-09-06T01:03:35.299Z,70.12
2022-09-06T01:04:35.259Z,70.73
2022-09-06T01:05:35.260Z,70.02
2022-09-06T01:06:35.239Z,70.83
2022-09-06T01:07:35.237Z,71.13
2022-09-06T01:08:35.237Z,70.02
2022-09-06T01:09:35.196Z,70.42
2022-09-06T01:10:35.209Z,70.22
2022-09-06T01:11:35.187Z,71.23
2022-09-06T01:12:35.185Z,71.33
2022-09-06T01:13:35.198Z,71.03
2022-09-06T01:14:35.170Z,70.22
2022-09-06T01:15:35.210Z,69.72
2022-09-06T01:16:35.155Z,70.83
2022-09-06T01:17:35.111Z,70.53
2022-09-06T01:18:35.138Z,70.02
2022-09-06T01:19:35.122Z,70.83
2022-09-06T01:20:35.106Z,70.22
2022-09-06T01:21:35.087Z,70.32
2022-09-06T01:22:35.082Z,71.13
2022-09-06T01:23:35.078Z,71.13
2022-09-06T01:24:35.048Z,71.73
2022-09-06T01:25:35.041Z,71.84
2022-09-06T01:26:35.032Z,70.56
2022-09-06T01:27:35.049Z,70.66
2022-09-06T01:28:35.022Z,71.47
2022-09-06T01:29:34.985Z,70.36
2022-09-06T01:30:35.098Z,69.85
2022-09-06T01:31:34.979Z,70.02
2022-09-06T01:32:34.962Z,69.31
2022-09-06T01:33:34.999Z,69.52
2022-09-06T01:34:34.927Z,69.92
2022-09-06T01:35:34.922Z,69.42
2022-09-06T01:36:35.973Z,70.02
2022-09-06T01:37:34.904Z,70.32
2022-09-06T01:38:34.921Z,70.93
2022-09-06T01:39:34.906Z,71.23
2022-09-06T01:40:34.878Z,70.02
2022-09-06T01:41:34.874Z,70.06
2022-09-06T01:42:34.846Z,71.06
2022-09-06T01:43:34.873Z,69.24
2022-09-06T01:44:34.862Z,70.06
2022-09-06T01:45:34.852Z,70.15
2022-09-06T01:46:34.899Z,70.15
2022-09-06T01:47:34.815Z,70.36
2022-09-06T01:48:34.786Z,70.56
2022-09-06T01:49:34.772Z,70.96
2022-09-06T01:50:34.761Z,70.26
2022-09-06T01:51:34.756Z,69.95
2022-09-06T01:52:34.737Z,70.26
2022-09-06T01:53:34.727Z,70.26
2022-09-06T01:54:35.240Z,69.75
2022-09-06T01:55:34.701Z,69.75
2022-09-06T01:56:34.734Z,69.75
2022-09-06T01:57:34.699Z,70.36
2022-09-06T01:58:34.678Z,69.75
2022-09-06T01:59:34.670Z,70.76
2022-09-06T02:00:34.652Z,70.46
2022-09-06T02:01:34.700Z,69.35
2022-09-06T02:02:34.733Z,69.75
2022-09-06T02:03:34.683Z,69.75
2022-09-06T02:04:34.602Z,70.26
2022-09-06T02:05:34.676Z,69.65
2022-09-06T02:06:34.603Z,69.85
2022-09-06T02:07:34.573Z,69.95
2022-09-06T02:08:34.613Z,69.78
2022-09-06T02:09:34.557Z,69.98
2022-09-06T02:10:34.542Z,69.89
2022-09-06T02:11:34.543Z,70.29
2022-09-06T02:12:34.503Z,70.09
2022-09-06T02:13:34.506Z,70.49
2022-09-06T02:14:34.483Z,69.78
2022-09-06T02:15:34.486Z,70.39
2022-09-06T02:16:34.529Z,69.78
2022-09-06T02:17:34.512Z,69.38
2022-09-06T02:18:34.467Z,68.98
2022-09-06T02:19:34.490Z,69.08
2022-09-06T02:20:34.437Z,68.87
2022-09-06T02:21:34.394Z,69.38
2022-09-06T02:22:34.403Z,69.48
2022-09-06T02:23:34.404Z,69.78
2022-09-06T02:24:34.373Z,69.68
2022-09-06T02:25:34.366Z,69.58
2022-09-06T02:26:34.369Z,69.28
2022-09-06T02:27:34.452Z,68.98
2022-09-06T02:28:34.337Z,69.58
2022-09-06T02:29:34.347Z,68.77
2022-09-06T02:30:34.374Z,68.77
2022-09-06T02:31:34.293Z,68.07
2022-09-06T02:32:34.289Z,68.37
2022-09-06T02:33:34.284Z,68.98
2022-09-06T02:34:34.297Z,68.67
2022-09-06T02:35:34.262Z,68.98
2022-09-06T02:36:34.258Z,68.27
2022-09-06T02:37:34.239Z,68.77
2022-09-06T02:38:34.252Z,69.78
2022-09-06T02:39:34.248Z,69.08
2022-09-06T02:40:34.221Z,68.57
2022-09-06T02:41:34.257Z,69.18
2022-09-06T02:42:34.176Z,68.57
2022-09-06T02:43:34.172Z,68.47
2022-09-06T02:44:34.170Z,68.57
2022-09-06T02:45:34.175Z,68.17
2022-09-06T02:46:34.191Z,67.86
2022-09-06T02:47:34.119Z,68.17
2022-09-06T02:48:34.160Z,68.37
2022-09-06T02:49:34.093Z,67.76
2022-09-06T02:50:34.104Z,69.08
2022-09-06T02:51:34.073Z,69.18
2022-09-06T02:52:34.112Z,69.51
2022-09-06T02:53:34.071Z,68.00
2022-09-06T02:54:34.069Z,67.80
2022-09-06T02:55:34.042Z,68.00
2022-09-06T02:56:34.024Z,68.30
2022-09-06T02:57:34.014Z,66.89
2022-09-06T02:58:34.029Z,67.36
2022-09-06T02:59:33.994Z,66.55
2022-09-06T03:00:33.980Z,67.36
2022-09-06T03:01:34.074Z,68.37
2022-09-06T03:02:34.000Z,68.07
2022-09-06T03:03:33.964Z,67.26
2022-09-06T03:04:33.974Z,67.56
2022-09-06T03:05:33.961Z,67.86
2022-09-06T03:06:33.914Z,66.35
2022-09-06T03:07:33.934Z,66.05
2022-09-06T03:08:33.916Z,65.84
2022-09-06T03:09:33.895Z,67.16
2022-09-06T03:10:33.879Z,67.97
2022-09-06T03:11:33.866Z,66.15
2022-09-06T03:12:33.896Z,66.65
2022-09-06T03:13:33.876Z,66.45
2022-09-06T03:14:34.771Z,66.38
2022-09-06T03:15:33.838Z,65.98
2022-09-06T03:16:33.898Z,67.09
2022-09-06T03:17:33.791Z,65.67
2022-09-06T03:18:33.831Z,65.88
2022-09-06T03:19:33.797Z,65.37
2022-09-06T03:20:36.981Z,66.45
2022-09-06T03:21:33.802Z,66.48
2022-09-06T03:22:33.757Z,66.78
2022-09-06T03:23:33.751Z,65.27
2022-09-06T03:24:33.753Z,66.08
2022-09-06T03:25:33.708Z,66.69
2022-09-06T03:26:33.702Z,65.98
2022-09-06T03:27:33.717Z,66.08
2022-09-06T03:28:33.691Z,65.37
2022-09-06T03:29:33.691Z,65.57
2022-09-06T03:30:33.709Z,65.78
2022-09-06T03:31:33.691Z,66.99
2022-09-06T03:32:33.663Z,66.08
2022-09-06T03:33:33.631Z,65.67
2022-09-06T03:34:33.652Z,65.98
2022-09-06T03:35:33.643Z,65.67
2022-09-06T03:36:33.597Z,65.07
2022-09-06T03:37:33.589Z,65.57
2022-09-06T03:38:33.577Z,64.97
2022-09-06T03:39:33.659Z,65.57
2022-09-06T03:40:33.585Z,66.69
2022-09-06T03:41:33.553Z,66.38
2022-09-06T03:42:33.580Z,65.07
2022-09-06T03:43:33.511Z,64.87
2022-09-06T03:44:33.535Z,65.07
2022-09-06T03:45:33.567Z,64.46
2022-09-06T03:46:33.497Z,64.67
2022-09-06T03:47:33.480Z,65.27
2022-09-06T03:48:33.485Z,66.28
2022-09-06T03:49:33.465Z,66.89
2022-09-06T03:50:33.468Z,67.19
2022-09-06T03:51:33.455Z,64.46
2022-09-06T03:52:33.466Z,65.17
2022-09-06T03:53:33.404Z,65.78
2022-09-06T03:54:33.464Z,66.18
2022-09-06T03:55:33.387Z,64.90
2022-09-06T03:56:33.391Z,64.39
2022-09-06T03:57:33.356Z,65.30
2022-09-06T03:58:33.456Z,64.70
2022-09-06T03:59:33.388Z,64.79
2022-09-06T04:00:33.329Z,65.10
2022-09-06T04:01:33.405Z,64.79
2022-09-06T04:02:33.371Z,65.10
2022-09-06T04:03:33.301Z,64.90
2022-09-06T04:04:33.306Z,64.79
2022-09-06T04:05:33.302Z,64.39
2022-09-06T04:06:33.287Z,64.59
2022-09-06T04:07:33.270Z,65.91
2022-09-06T04:08:33.256Z,65.30
2022-09-06T04:09:33.252Z,64.29
2022-09-06T04:10:33.240Z,63.78
2022-09-06T04:11:33.244Z,64.79
2022-09-06T04:12:33.197Z,65.30
2022-09-06T04:13:33.206Z,65.30
2022-09-06T04:14:33.211Z,64.79
2022-09-06T04:15:33.189Z,64.39
2022-09-06T04:16:33.186Z,64.90
2022-09-06T04:17:33.170Z,64.39
2022-09-06T04:18:33.142Z,63.99
2022-09-06T04:19:33.143Z,63.89
2022-09-06T04:20:33.108Z,63.48
2022-09-06T04:21:33.101Z,64.29
2022-09-06T04:22:33.144Z,63.78
2022-09-06T04:23:37.662Z,63.78
2022-09-06T04:24:33.099Z,64.19
2022-09-06T04:25:33.061Z,64.39
2022-09-06T04:26:33.066Z,63.08
2022-09-06T04:27:33.060Z,63.58
2022-09-06T04:28:33.035Z,64.19
2022-09-06T04:29:33.065Z,63.89
2022-09-06T04:30:33.022Z,63.89
2022-09-06T04:31:33.037Z,64.09
2022-09-06T04:32:33.014Z,63.68
2022-09-06T04:33:32.987Z,64.29
2022-09-06T04:34:33.006Z,63.58
2022-09-06T04:35:32.948Z,63.31
2022-09-06T04:36:32.952Z,63.41
2022-09-06T04:37:32.930Z,63.92
2022-09-06T04:38:32.963Z,63.92
2022-09-06T04:39:32.964Z,63.51
2022-09-06T04:40:32.901Z,63.61
2022-09-06T04:41:32.913Z,63.81
2022-09-06T04:42:32.871Z,63.51
2022-09-06T04:43:32.886Z,64.12
2022-09-06T04:44:32.874Z,63.41
2022-09-06T04:45:32.897Z,63.41
2022-09-06T04:46:32.882Z,63.61
2022-09-06T04:47:40.434Z,63.10
2022-09-06T04:48:32.808Z,64.32
2022-09-06T04:49:32.808Z,63.92
2022-09-06T04:50:32.787Z,64.42
2022-09-06T04:51:32.897Z,65.23
2022-09-06T04:52:32.764Z,64.42
2022-09-06T04:53:32.753Z,63.61
2022-09-06T04:54:32.772Z,64.02
2022-09-06T04:55:32.764Z,63.10
2022-09-06T04:56:32.722Z,64.62
2022-09-06T04:57:32.729Z,65.43
2022-09-06T04:58:32.707Z,64.22
2022-09-06T04:59:32.712Z,65.23
2022-09-06T05:00:32.690Z,64.42
2022-09-06T05:01:32.714Z,63.01
2022-09-06T05:02:32.723Z,62.70
2022-09-06T05:03:32.649Z,63.10
2022-09-06T05:04:32.658Z,63.92
2022-09-06T05:05:32.634Z,63.41
2022-09-06T05:06:32.624Z,63.21
2022-09-06T05:07:32.623Z,63.71
2022-09-06T05:08:32.611Z,63.21
2022-09-06T05:09:32.597Z,62.81
2022-09-06T05:10:32.670Z,62.90
2022-09-06T05:11:32.661Z,62.30
2022-09-06T05:12:32.560Z,62.40
2022-09-06T05:13:32.543Z,62.70
2022-09-06T05:14:32.555Z,62.50
2022-09-06T05:15:32.519Z,62.30
2022-09-06T05:16:32.572Z,62.60
2022-09-06T05:17:32.505Z,63.01
2022-09-06T05:18:32.501Z,63.10
2022-09-06T05:19:32.486Z,63.31
2022-09-06T05:20:32.466Z,63.71
2022-09-06T05:21:32.463Z,62.70
2022-09-06T05:22:32.454Z,62.10
2022-09-06T05:23:32.446Z,62.40
2022-09-06T05:24:32.455Z,62.30
2022-09-06T05:25:32.421Z,62.19
2022-09-06T05:26:32.416Z,62.50
2022-09-06T05:27:32.387Z,62.10
2022-09-06T05:28:32.382Z,62.27
2022-09-06T05:29:32.392Z,61.87
2022-09-06T05:30:32.370Z,62.07
2022-09-06T05:31:32.461Z,62.37
2022-09-06T05:32:32.363Z,61.46
2022-09-06T05:33:32.329Z,62.27
2022-09-06T05:34:32.327Z,62.16
2022-09-06T05:35:32.308Z,61.87
2022-09-06T05:36:32.303Z,62.37
2022-09-06T05:37:32.361Z,62.16
2022-09-06T05:38:32.559Z,62.16
2022-09-06T05:39:32.309Z,62.37
2022-09-06T05:40:32.248Z,63.38
2022-09-06T05:41:32.264Z,63.58
2022-09-06T05:42:32.241Z,61.96
2022-09-06T05:43:32.251Z,63.78
2022-09-06T05:44:32.229Z,63.89
2022-09-06T05:45:32.256Z,62.47
2022-09-06T05:46:32.206Z,63.08
2022-09-06T05:47:32.179Z,62.47
2022-09-06T05:48:36.632Z,62.27
2022-09-06T05:49:32.164Z,62.16
2022-09-06T05:50:32.146Z,63.18
2022-09-06T05:51:32.129Z,62.57
2022-09-06T05:52:32.147Z,62.07
2022-09-06T05:53:32.126Z,62.27
2022-09-06T05:54:32.120Z,61.66
2022-09-06T05:55:32.089Z,62.57
2022-09-06T05:56:32.094Z,62.98
2022-09-06T05:57:32.059Z,61.46
2022-09-06T05:58:32.060Z,61.56
2022-09-06T05:59:32.059Z,61.25
2022-09-06T06:00:32.042Z,62.77
2022-09-06T06:01:32.094Z,61.96
2022-09-06T06:02:32.108Z,61.46
2022-09-06T06:03:32.011Z,61.56
2022-09-06T06:04:32.001Z,61.87
2022-09-06T06:05:32.004Z,61.87
2022-09-06T06:06:31.968Z,61.66
2022-09-06T06:07:31.953Z,61.05
2022-09-06T06:08:31.957Z,61.46
2022-09-06T06:09:31.952Z,61.83
2022-09-06T06:10:34.393Z,61.53
2022-09-06T06:11:31.924Z,61.23
2022-09-06T06:12:31.905Z,61.56
2022-09-06T06:13:31.909Z,61.66
2022-09-06T06:14:31.896Z,61.16
2022-09-06T06:15:31.866Z,61.33
2022-09-06T06:16:31.927Z,61.63
2022-09-06T06:17:31.889Z,61.63
2022-09-06T06:18:31.843Z,61.63
2022-09-06T06:19:31.839Z,61.94
2022-09-06T06:20:31.846Z,62.54
2022-09-06T06:21:31.817Z,62.64
2022-09-06T06:22:31.807Z,61.94
2022-09-06T06:23:31.796Z,60.93
2022-09-06T06:24:31.790Z,63.45
2022-09-06T06:25:31.768Z,63.15
2022-09-06T06:26:31.750Z,61.33
2022-09-06T06:27:31.792Z,62.74
2022-09-06T06:28:31.732Z,61.83
2022-09-06T06:29:31.769Z,61.33
2022-09-06T06:30:31.723Z,61.13
2022-09-06T06:31:31.733Z,61.03
2022-09-06T06:32:31.693Z,62.44
2022-09-06T06:33:31.673Z,62.44
2022-09-06T06:34:31.688Z,61.23
2022-09-06T06:35:31.664Z,61.43
2022-09-06T06:36:31.667Z,61.03
2022-09-06T06:37:31.634Z,61.43
2022-09-06T06:38:31.623Z,61.73
2022-09-06T06:39:31.703Z,61.91
2022-09-06T06:40:31.608Z,61.30
2022-09-06T06:41:31.599Z,60.49
2022-09-06T06:42:31.573Z,60.69
2022-09-06T06:43:31.579Z,61.20
2022-09-06T06:44:31.572Z,60.49
2022-09-06T06:45:31.702Z,61.30
2022-09-06T06:46:31.536Z,61.91
2022-09-06T06:47:31.541Z,61.40
2022-09-06T06:48:31.510Z,60.80
2022-09-06T06:49:31.582Z,60.19
2022-09-06T06:50:31.493Z,60.60
2022-09-06T06:51:31.520Z,60.49
2022-09-06T06:52:31.470Z,61.40
2022-09-06T06:53:31.461Z,60.49
2022-09-06T06:54:31.458Z,59.99
2022-09-06T06:55:31.441Z,60.69
2022-09-06T06:56:31.450Z,59.99
2022-09-06T06:57:31.408Z,60.89
2022-09-06T06:58:31.453Z,61.10
2022-09-06T06:59:31.410Z,60.89
2022-09-06T07:00:31.388Z,61.10
2022-09-06T07:01:31.605Z,60.66
2022-09-06T07:02:31.385Z,60.36
2022-09-06T07:03:31.382Z,60.57
2022-09-06T07:04:31.861Z,61.07
2022-09-06T07:07:32.259Z,60.46
2022-09-06T07:08:31.298Z,60.36
2022-09-06T07:10:34.896Z,60.57
2022-09-06T07:11:31.267Z,60.66
2022-09-06T07:12:31.292Z,59.76
2022-09-06T07:13:31.247Z,60.06
2022-09-06T07:14:31.278Z,60.26
2022-09-06T07:15:31.219Z,60.06
2022-09-06T07:16:31.277Z,60.26
2022-09-06T07:17:31.186Z,60.87
2022-09-06T07:18:31.235Z,61.88
2022-09-06T07:20:31.232Z,61.37
2022-09-06T07:21:38.746Z,60.66
2022-09-06T07:22:31.194Z,60.77
2022-09-06T07:24:31.171Z,61.37
2022-09-06T07:25:31.104Z,61.04
2022-09-06T07:26:31.223Z,60.44
2022-09-06T07:27:46.769Z,60.94
2022-09-06T07:28:31.078Z,60.74
2022-09-06T07:29:31.078Z,60.53
2022-09-06T07:30:31.042Z,60.94
2022-09-06T07:32:31.042Z,60.84
2022-09-06T07:33:31.020Z,60.03
2022-09-06T07:34:31.013Z,60.03
2022-09-06T07:35:30.990Z,60.53
2022-09-06T07:36:31.003Z,60.03
2022-09-06T07:37:30.990Z,60.24
2022-09-06T07:38:31.007Z,60.84
2022-09-06T07:39:31.006Z,60.44
2022-09-06T07:40:30.939Z,61.14
2022-09-06T07:41:30.961Z,60.53
2022-09-06T07:42:35.650Z,60.44
2022-09-06T07:43:30.909Z,61.14
2022-09-06T07:44:30.904Z,61.55
2022-09-06T07:45:30.907Z,60.74
2022-09-06T07:46:30.909Z,60.33
2022-09-06T07:48:30.847Z,61.24
2022-09-06T07:49:34.704Z,61.65
2022-09-06T07:50:46.367Z,60.44
2022-09-06T07:51:30.845Z,61.24
2022-09-06T07:53:31.418Z,61.41
2022-09-06T07:54:31.549Z,60.81
2022-09-06T07:55:30.815Z,61.11
2022-09-06T07:56:30.782Z,60.91
2022-09-06T07:57:30.738Z,60.91
2022-09-06T07:58:30.740Z,60.21
2022-09-06T07:59:30.759Z,60.61
2022-09-06T08:00:30.736Z,61.01
2022-09-06T08:01:30.777Z,61.32
2022-09-06T08:02:30.742Z,60.91
2022-09-06T08:03:30.671Z,60.21
2022-09-06T08:04:30.666Z,60.21
2022-09-06T08:06:31.311Z,60.71
2022-09-06T08:09:30.714Z,60.08
2022-09-06T08:10:30.609Z,60.08
2022-09-06T08:11:30.637Z,60.68
2022-09-06T08:12:30.605Z,59.77
2022-09-06T08:13:30.577Z,60.28
2022-09-06T08:14:30.567Z,59.97
2022-09-06T08:15:30.565Z,60.58
2022-09-06T08:16:30.650Z,60.98
2022-09-06T08:17:30.535Z,60.35
2022-09-06T08:18:30.511Z,59.55
2022-09-06T08:19:30.530Z,60.65
2022-09-06T08:20:30.505Z,60.05
2022-09-06T08:21:30.531Z,60.35
2022-09-06T08:22:30.463Z,60.28
2022-09-06T08:23:30.472Z,60.05
2022-09-06T08:24:30.453Z,60.55
2022-09-06T08:25:30.453Z,60.08
2022-09-06T08:26:30.469Z,61.08
2022-09-06T08:27:30.452Z,60.48
2022-09-06T08:28:30.447Z,60.48
2022-09-06T08:29:30.413Z,60.98
2022-09-06T08:30:30.392Z,61.29
2022-09-06T08:31:30.490Z,61.89
2022-09-06T08:32:30.369Z,62.49
2022-09-06T08:33:30.361Z,62.19
2022-09-06T08:34:30.365Z,60.88
2022-09-06T08:35:30.335Z,61.69
2022-09-06T08:36:30.350Z,60.48
2022-09-06T08:37:30.305Z,60.78
2022-09-06T08:38:30.319Z,61.08
2022-09-06T08:39:30.344Z,61.49
2022-09-06T08:40:30.277Z,61.08
2022-09-06T08:41:30.275Z,61.49
2022-09-06T08:42:30.268Z,61.18
2022-09-06T08:43:30.239Z,60.98
2022-09-06T08:45:30.221Z,61.59
2022-09-06T08:46:30.319Z,61.99
2022-09-06T08:47:30.202Z,62.49
2022-09-06T08:48:30.193Z,61.76
2022-09-06T08:49:30.202Z,62.16
2022-09-06T08:50:30.162Z,61.05
2022-09-06T08:51:30.181Z,61.39
2022-09-06T08:52:30.149Z,61.69
2022-09-06T08:53:30.268Z,61.49
2022-09-06T08:54:30.203Z,61.39
2022-09-06T08:55:30.123Z,61.99
2022-09-06T08:56:30.155Z,62.19
2022-09-06T08:57:30.102Z,62.29
2022-09-06T08:58:30.094Z,62.40
2022-09-06T08:59:30.066Z,62.19
2022-09-06T09:00:30.150Z,61.99
2022-09-06T09:01:30.087Z,62.29
2022-09-06T09:02:30.126Z,61.69
2022-09-06T09:03:30.039Z,62.40
2022-09-06T09:04:30.011Z,62.40
2022-09-06T09:05:30.014Z,62.90
2022-09-06T09:06:30.019Z,62.90
2022-09-06T09:07:30.009Z,62.70
2022-09-06T09:08:30.180Z,62.19
2022-09-06T09:09:29.991Z,62.32
2022-09-06T09:10:29.954Z,62.70
2022-09-06T09:11:29.988Z,62.80
2022-09-06T09:12:29.935Z,63.00
2022-09-06T09:13:29.913Z,62.70
2022-09-06T09:14:29.939Z,62.80
2022-09-06T09:15:29.889Z,62.80
2022-09-06T09:16:29.971Z,63.40
2022-09-06T09:17:29.873Z,62.80
2022-09-06T09:18:29.857Z,63.20
2022-09-06T09:19:29.872Z,62.97
2022-09-06T09:20:29.842Z,62.19
2022-09-06T09:21:31.059Z,62.70
2022-09-06T09:22:29.827Z,62.60
2022-09-06T09:23:29.865Z,63.40
2022-09-06T09:24:29.811Z,63.20
2022-09-06T09:25:29.785Z,63.00
2022-09-06T09:26:29.844Z,63.30
2022-09-06T09:27:29.770Z,63.10
2022-09-06T09:28:29.967Z,62.90
2022-09-06T09:29:34.378Z,63.00
2022-09-06T09:31:29.800Z,63.60
2022-09-06T09:32:29.714Z,63.40
2022-09-06T09:33:29.866Z,63.17
2022-09-06T09:34:29.747Z,63.67
2022-09-06T09:35:29.728Z,63.98
2022-09-06T09:36:29.696Z,63.17
2022-09-06T09:38:29.814Z,63.17
2022-09-06T09:39:29.744Z,63.17
2022-09-06T09:40:29.642Z,63.07
2022-09-06T09:41:29.629Z,63.37
2022-09-06T09:42:29.820Z,62.87
2022-09-06T09:43:29.595Z,63.17
2022-09-06T09:44:29.590Z,62.77
2022-09-06T09:45:29.579Z,63.17
2022-09-06T09:46:29.634Z,63.87
2022-09-06T09:47:29.548Z,62.84
2022-09-06T09:48:29.755Z,62.74
2022-09-06T09:49:29.516Z,62.84
2022-09-06T09:50:29.522Z,62.74
2022-09-06T09:51:29.577Z,62.94
2022-09-06T09:52:29.493Z,63.04
2022-09-06T09:53:29.525Z,63.24
2022-09-06T09:54:29.480Z,62.84
2022-09-06T09:55:29.458Z,63.24
2022-09-06T09:56:29.481Z,63.45
2022-09-06T09:57:29.445Z,63.14
2022-09-06T09:58:29.559Z,63.34
2022-09-06T09:59:29.424Z,63.34
2022-09-06T10:00:29.494Z,62.94
2022-09-06T10:01:29.419Z,62.94
2022-09-06T10:02:29.458Z,63.14
2022-09-06T10:03:29.536Z,62.84
2022-09-06T10:04:45.257Z,63.14
2022-09-06T10:05:29.356Z,63.24
2022-09-06T10:07:29.331Z,63.11
2022-09-06T10:08:29.411Z,64.02
2022-09-06T10:09:29.312Z,63.82
2022-09-06T10:10:29.311Z,63.51
2022-09-06T10:11:29.380Z,63.21
2022-09-06T10:12:29.311Z,63.31
2022-09-06T10:13:29.261Z,63.89
2022-09-06T10:14:29.258Z,62.98
2022-09-06T10:15:29.249Z,62.58
2022-09-06T10:16:29.302Z,63.08
2022-09-06T10:17:29.267Z,62.78
2022-09-06T10:18:29.270Z,63.28
2022-09-06T10:19:29.197Z,63.48
2022-09-06T10:20:29.225Z,62.68
2022-09-06T10:21:29.189Z,62.88
2022-09-06T10:22:29.168Z,62.58
2022-09-06T10:24:29.159Z,62.18
2022-09-06T10:25:29.135Z,62.75
2022-09-06T10:26:29.146Z,62.85
2022-09-06T10:27:29.150Z,62.95
2022-09-06T10:28:29.402Z,63.35
2022-09-06T10:29:29.102Z,62.75
2022-09-06T10:30:29.089Z,62.65
2022-09-06T10:31:29.193Z,63.35
2022-09-06T10:32:31.158Z,62.52
2022-09-06T10:33:29.051Z,62.62
2022-09-06T10:34:29.064Z,63.22
2022-09-06T10:35:29.034Z,63.12
2022-09-06T10:36:29.018Z,63.02
2022-09-06T10:37:29.018Z,63.02
2022-09-06T10:38:29.178Z,62.32
2022-09-06T10:39:29.062Z,62.62
2022-09-06T10:40:28.973Z,63.62
2022-09-06T10:41:28.967Z,64.10
2022-09-06T10:42:28.956Z,62.29
2022-09-06T10:43:28.970Z,62.29
2022-09-06T10:44:28.931Z,62.19
2022-09-06T10:45:28.936Z,63.39
2022-09-06T10:46:28.985Z,63.59
2022-09-06T10:47:35.457Z,62.79
2022-09-06T10:48:29.268Z,62.69
2022-09-06T10:49:28.868Z,63.09
2022-09-06T10:50:28.861Z,63.09
2022-09-06T10:51:28.861Z,62.99
2022-09-06T10:52:28.839Z,63.06
2022-09-06T10:53:28.858Z,62.39
2022-09-06T10:54:28.831Z,62.19
2022-09-06T10:55:28.804Z,62.49
2022-09-06T10:56:28.819Z,63.67
2022-09-06T10:58:29.095Z,62.59
2022-09-06T10:59:36.945Z,62.99
2022-09-06T11:00:28.780Z,62.79
2022-09-06T11:01:28.816Z,62.99
2022-09-06T11:02:29.139Z,63.29
2022-09-06T11:04:28.835Z,61.99
2022-09-06T11:05:44.146Z,61.96
2022-09-06T11:06:28.799Z,62.39
2022-09-06T11:07:28.698Z,62.26
2022-09-06T11:09:27.685Z,62.06
2022-09-06T11:10:28.661Z,63.17
2022-09-06T11:11:28.661Z,63.56
2022-09-06T11:12:28.645Z,62.96
2022-09-06T11:13:28.651Z,63.67
2022-09-06T11:14:28.629Z,62.56
2022-09-06T11:15:28.597Z,62.66
2022-09-06T11:16:28.671Z,62.76
2022-09-06T11:17:28.588Z,62.96
2022-09-06T11:18:28.653Z,62.16
2022-09-06T11:19:28.551Z,62.36
2022-09-06T11:20:31.919Z,62.36
2022-09-06T11:21:28.532Z,62.76
2022-09-06T11:22:28.541Z,63.17
2022-09-06T11:23:28.585Z,63.26
2022-09-06T11:24:28.497Z,62.36
2022-09-06T11:25:28.502Z,62.56
2022-09-06T11:26:28.494Z,63.26
2022-09-06T11:27:28.462Z,63.46
2022-09-06T11:28:28.450Z,63.64
2022-09-06T11:29:28.448Z,64.24
2022-09-06T11:30:28.455Z,63.13
2022-09-06T11:32:28.444Z,63.73
2022-09-06T11:33:28.530Z,64.04
2022-09-06T11:34:28.383Z,65.04
2022-09-06T11:35:28.363Z,64.51
2022-09-06T11:36:28.401Z,63.81
2022-09-06T11:37:28.362Z,63.60
2022-09-06T11:38:28.351Z,64.91
2022-09-06T11:40:28.881Z,64.88
2022-09-06T11:41:28.358Z,63.57
2022-09-06T11:42:28.308Z,63.67
2022-09-06T11:43:28.386Z,62.37
2022-09-06T11:44:28.294Z,62.77
2022-09-06T11:45:28.263Z,62.27
2022-09-06T11:46:28.290Z,62.80
2022-09-06T11:47:28.271Z,64.07
2022-09-06T11:48:28.249Z,63.37
2022-09-06T11:49:28.208Z,63.47
2022-09-06T11:50:28.233Z,64.18
2022-09-06T11:51:28.202Z,62.97
2022-09-06T11:52:28.216Z,63.28
2022-09-06T11:53:28.276Z,63.28
2022-09-06T11:54:28.173Z,63.75
2022-09-06T11:55:28.169Z,63.75
2022-09-06T11:56:28.150Z,63.54
2022-09-06T11:57:28.153Z,63.14
2022-09-06T11:58:28.140Z,62.54
2022-09-06T11:59:28.119Z,62.97
2022-09-06T12:00:28.105Z,63.37
2022-09-06T12:01:28.112Z,63.17
2022-09-06T12:02:28.221Z,63.47
2022-09-06T12:04:28.080Z,62.94
2022-09-06T12:05:28.041Z,62.54
2022-09-06T12:06:28.036Z,62.94
2022-09-06T12:07:28.055Z,62.44
2022-09-06T12:08:28.222Z,62.44
2022-09-06T12:09:28.022Z,62.34
2022-09-06T12:10:27.010Z,62.14
2022-09-06T12:11:30.354Z,62.64
2022-09-06T12:12:27.977Z,62.24
2022-09-06T12:13:27.984Z,61.74
2022-09-06T12:14:27.974Z,61.64
2022-09-06T12:15:27.965Z,61.94
2022-09-06T12:16:27.995Z,61.94
2022-09-06T12:17:27.924Z,61.74
2022-09-06T12:18:28.024Z,62.64
2022-09-06T12:19:27.894Z,61.34
2022-09-06T12:20:27.901Z,61.84
2022-09-06T12:21:27.867Z,61.84
2022-09-06T12:22:27.870Z,61.54
2022-09-06T12:23:27.905Z,61.84
2022-09-06T12:24:27.854Z,62.04
2022-09-06T12:25:27.819Z,61.94
2022-09-06T12:26:27.830Z,61.44
2022-09-06T12:27:27.833Z,61.74
2022-09-06T12:28:27.901Z,61.44
2022-09-06T12:29:27.816Z,61.74
2022-09-06T12:30:27.811Z,62.04
2022-09-06T12:31:27.849Z,61.44
2022-09-06T12:32:27.757Z,62.14
2022-09-06T12:33:27.730Z,61.94
2022-09-06T12:34:27.748Z,62.14
2022-09-06T12:36:27.723Z,61.94
2022-09-06T12:37:27.718Z,61.74
2022-09-06T12:38:27.768Z,61.84
2022-09-06T12:39:27.767Z,61.87
2022-09-06T12:40:27.683Z,62.17
2022-09-06T12:41:27.663Z,61.67
2022-09-06T12:42:27.650Z,61.87
2022-09-06T12:43:27.636Z,62.27
2022-09-06T12:44:27.637Z,62.67
2022-09-06T12:45:27.842Z,62.97
2022-09-06T12:46:27.735Z,62.27
2022-09-06T12:47:27.602Z,62.47
2022-09-06T12:48:27.843Z,62.57
2022-09-06T12:49:27.584Z,62.97
2022-09-06T12:50:27.633Z,62.27
2022-09-06T12:51:27.582Z,62.37
2022-09-06T12:52:27.532Z,63.37
2022-09-06T12:53:27.516Z,63.17
2022-09-06T12:54:27.516Z,64.18
2022-09-06T12:55:27.503Z,65.38
2022-09-06T12:56:27.517Z,62.77
2022-09-06T12:57:27.500Z,61.77
2022-09-06T12:58:27.580Z,63.47
2022-09-06T12:59:27.474Z,63.98
2022-09-06T13:00:27.457Z,64.78
2022-09-06T13:01:27.599Z,64.58
2022-09-06T13:02:27.572Z,66.28
2022-09-06T13:03:27.438Z,63.20
2022-09-06T13:04:27.408Z,63.10
2022-09-06T13:05:27.383Z,63.81
2022-09-06T13:06:27.534Z,64.61
2022-09-06T13:07:27.378Z,64.81
2022-09-06T13:08:27.381Z,66.21
2022-09-06T13:09:27.346Z,66.61
2022-09-06T13:10:27.359Z,68.02
2022-09-06T13:11:27.433Z,68.22
2022-09-06T13:12:27.346Z,68.12
2022-09-06T13:13:27.314Z,68.52
2022-09-06T13:14:27.297Z,69.22
2022-09-06T13:15:27.302Z,68.92